Time;durP1;ratioP1;P1;durP2;ratioP2;P2;SDS_P1;SDS_P2;PMS_P1;PMS_P2;Temp;Humidity;BMP_temperature;BMP_pressure;BME280_temperature;BME280_humidity;BME280_pressure;Samples;Min_cycle;Max_cycle;Signal;HPM_P1;HPM_P2
2023/01/26 00:01:48;;;;;;;71.63;43.58;;;102.50;2227.20;;;;;;5051634;28;20098;-63
2023/01/26 00:04:13;;;;;;;85.63;44.58;;;77.70;2227.20;;;;;;5051840;28;20019;-58
2023/01/26 00:06:39;;;;;;;74.22;43.70;;;102.50;2227.20;;;;;;5051500;28;20418;-59
2023/01/26 00:09:05;;;;;;;87.63;53.45;;;77.60;2227.20;;;;;;5051505;28;20028;-59
2023/01/26 00:11:30;;;;;;;85.88;46.25;;;77.70;2227.20;;;;;;5051732;28;20024;-59
2023/01/26 00:13:58;;;;;;;90.50;48.55;;;102.50;2227.20;;;;;;5051342;28;20029;-58
2023/01/26 00:16:24;;;;;;;72.78;46.25;;;102.50;2227.20;;;;;;5048675;28;20025;-58
2023/01/26 00:18:50;;;;;;;78.72;43.70;;;77.70;2227.20;;;;;;5051546;28;20462;-58
2023/01/26 00:21:19;;;;;;;92.55;52.00;;;102.40;2227.20;;;;;;5050947;28;20101;-62
2023/01/26 00:23:46;;;;;;;117.35;63.40;;;102.50;2227.20;;;;;;5048801;28;20382;-60
2023/01/26 00:26:16;;;;;;;93.68;51.38;;;102.60;2227.20;;;;;;5052053;28;20428;-58
2023/01/26 00:28:42;;;;;;;78.05;47.20;;;102.70;2227.20;;;;;;5051762;28;20036;-65
2023/01/26 00:31:20;;;;;;;59.95;36.95;;;102.60;2227.20;;;;;;5051560;28;20036;-64
2023/01/26 00:33:46;;;;;;;63.50;33.97;;;102.60;2227.20;;;;;;5051529;28;20028;-59
2023/01/26 00:36:12;;;;;;;58.05;34.42;;;102.50;2227.20;;;;;;5051845;28;20368;-58
2023/01/26 00:38:38;;;;;;;56.95;34.42;;;102.40;2227.20;;;;;;5050621;28;20094;-60
2023/01/26 00:41:04;;;;;;;54.45;34.08;;;77.70;2227.20;;;;;;5051522;28;20028;-63
2023/01/26 00:43:30;;;;;;;67.63;37.10;;;102.40;2227.20;;;;;;5051499;28;20083;-59
2023/01/26 00:45:55;;;;;;;60.45;36.80;;;102.40;2227.20;;;;;;5051036;28;20045;-58
2023/01/26 00:48:21;;;;;;;71.97;42.60;;;102.40;2227.20;;;;;;5051647;28;20028;-59
2023/01/26 00:50:49;;;;;;;74.03;40.95;;;102.50;2227.20;;;;;;5051241;28;20061;-58
2023/01/26 00:53:17;;;;;;;59.25;33.55;;;102.60;2227.20;;;;;;5050999;28;20083;-58
2023/01/26 00:55:42;;;;;;;58.33;33.15;;;77.70;2227.20;;;;;;5051407;28;20468;-59
2023/01/26 00:58:09;;;;;;;66.75;37.83;;;77.50;2227.20;;;;;;5051022;28;20025;-58
2023/01/26 01:00:37;;;;;;;73.13;41.60;;;77.60;2227.20;;;;;;5051190;28;20736;-57
2023/01/26 01:03:04;;;;;;;66.72;39.40;;;77.60;2227.20;;;;;;5051104;28;20021;-58
2023/01/26 01:05:31;;;;;;;75.22;40.03;;;77.50;2227.20;;;;;;5051263;28;20036;-64
2023/01/26 01:07:57;;;;;;;74.90;41.47;;;77.60;2227.20;;;;;;5051200;28;20037;-59
2023/01/26 01:10:23;;;;;;;75.93;43.30;;;77.50;2227.20;;;;;;5050918;28;20055;-63
2023/01/26 01:12:49;;;;;;;75.10;37.60;;;77.70;2227.20;;;;;;5050815;28;20041;-63
2023/01/26 01:15:15;;;;;;;70.45;40.40;;;77.60;2227.20;;;;;;5050805;28;20151;-59
2023/01/26 01:17:40;;;;;;;66.28;38.70;;;77.60;2227.20;;;;;;5050987;28;20033;-64
2023/01/26 01:20:08;;;;;;;61.83;37.60;;;77.70;2227.20;;;;;;5050932;28;20028;-59
2023/01/26 01:22:35;;;;;;;77.10;41.83;;;102.40;2227.20;;;;;;5050637;28;20033;-58
2023/01/26 01:25:01;;;;;;;75.05;43.25;;;102.40;2227.20;;;;;;5050909;28;20037;-59
2023/01/26 01:27:27;;;;;;;83.97;46.92;;;102.40;2227.20;;;;;;5050714;28;20473;-59
2023/01/26 01:29:53;;;;;;;63.38;39.40;;;102.40;2227.20;;;;;;5050895;28;20033;-59
2023/01/26 01:32:19;;;;;;;64.70;42.35;;;102.40;2227.20;;;;;;5049898;28;20033;-62
2023/01/26 01:34:49;;;;;;;60.17;37.72;;;102.40;2227.20;;;;;;5050624;28;20128;-59
2023/01/26 01:37:16;;;;;;;56.45;35.10;;;102.50;2227.20;;;;;;5050865;28;20115;-59
2023/01/26 01:39:42;;;;;;;62.05;35.35;;;102.50;2227.20;;;;;;5050701;28;20072;-63
2023/01/26 01:42:08;;;;;;;70.03;39.63;;;102.40;2227.20;;;;;;5050511;28;20486;-59
2023/01/26 01:44:35;;;;;;;71.70;37.70;;;102.50;2227.20;;;;;;5050497;28;20372;-59
2023/01/26 01:47:01;;;;;;;60.03;34.45;;;102.50;2227.20;;;;;;5050345;28;20028;-63
2023/01/26 01:49:36;;;;;;;53.22;32.80;;;102.40;2227.20;;;;;;5050639;28;20025;-62
2023/01/26 01:52:02;;;;;;;57.25;33.20;;;77.70;2227.20;;;;;;5050362;28;20033;-59
2023/01/26 01:54:42;;;;;;;49.80;30.63;;;77.70;2227.20;;;;;;5049916;28;20049;-61
2023/01/26 01:57:14;;;;;;;64.13;35.05;;;77.70;2227.20;;;;;;5050289;28;20025;-64
2023/01/26 01:59:50;;;;;;;52.10;33.45;;;77.70;2227.20;;;;;;5050604;28;20046;-59
2023/01/26 02:02:16;;;;;;;50.03;31.00;;;102.40;2227.20;;;;;;5049994;28;20502;-58
2023/01/26 02:04:43;;;;;;;60.55;35.97;;;77.70;2227.20;;;;;;5050363;28;20029;-64
2023/01/26 02:07:10;;;;;;;52.58;31.75;;;77.70;2227.20;;;;;;5050030;28;20490;-61
2023/01/26 02:12:28;;;;;;;57.95;32.97;;;77.60;2227.20;;;;;;5050076;28;20031;-59
2023/01/26 02:14:55;;;;;;;50.42;32.63;;;77.50;2227.20;;;;;;5050445;28;20052;-63
2023/01/26 02:17:21;;;;;;;64.70;37.83;;;77.50;2227.20;;;;;;5050275;28;20075;-63
2023/01/26 02:20:13;;;;;;;62.13;36.55;;;77.40;2227.20;;;;;;5050123;28;20413;-59
2023/01/26 02:22:44;;;;;;;61.92;34.63;;;77.60;2227.20;;;;;;4988625;28;20038;-62
2023/01/26 02:25:24;;;;;;;69.40;38.63;;;77.60;2227.20;;;;;;4989020;28;20089;-60
2023/01/26 02:27:50;;;;;;;81.00;45.67;;;77.40;2227.20;;;;;;4988899;28;20085;-63
2023/01/26 02:30:16;;;;;;;60.65;37.08;;;77.50;2227.20;;;;;;4988722;28;20049;-59
2023/01/26 02:32:42;;;;;;;66.68;38.03;;;77.50;2227.20;;;;;;4988563;28;20035;-59
2023/01/26 02:35:08;;;;;;;74.57;43.20;;;77.50;2227.20;;;;;;4988583;28;20030;-59
2023/01/26 02:37:34;;;;;;;74.00;41.90;;;77.60;2227.20;;;;;;4988818;28;20026;-59
2023/01/26 02:40:13;;;;;;;81.80;44.35;;;77.60;2227.20;;;;;;4988612;28;20035;-63
2023/01/26 02:42:40;;;;;;;73.45;43.30;;;77.40;2227.20;;;;;;4988396;28;20487;-60
2023/01/26 02:45:08;;;;;;;66.63;37.33;;;77.40;2227.20;;;;;;5002551;28;20049;-59
2023/01/26 02:47:34;;;;;;;65.63;37.42;;;77.30;2227.20;;;;;;5031511;28;20045;-59
2023/01/26 02:50:00;;;;;;;59.60;35.00;;;77.40;2227.20;;;;;;5031670;28;20120;-62
2023/01/26 02:52:28;;;;;;;65.82;33.83;;;77.40;2227.20;;;;;;5031263;28;20041;-60
2023/01/26 02:57:38;;;;;;;55.78;33.53;;;77.30;2227.20;;;;;;5031679;28;20083;-59
2023/01/26 03:00:08;;;;;;;52.13;32.47;;;77.30;2227.20;;;;;;5056813;28;20048;-60
2023/01/26 03:02:34;;;;;;;53.85;32.10;;;77.40;2227.20;;;;;;5053373;28;20025;-59
2023/01/26 03:05:00;;;;;;;46.92;30.77;;;77.40;2227.20;;;;;;5053560;28;20028;-58
2023/01/26 03:07:26;;;;;;;49.83;30.50;;;77.50;2227.20;;;;;;5053413;28;20025;-59
2023/01/26 03:09:52;;;;;;;44.25;29.27;;;77.40;2227.20;;;;;;5053551;28;20418;-64
2023/01/26 03:12:17;;;;;;;59.17;33.33;;;77.50;2227.20;;;;;;5053125;28;20029;-59
2023/01/26 03:14:43;;;;;;;58.95;32.20;;;77.40;2227.20;;;;;;5053442;28;20162;-59
2023/01/26 03:17:09;;;;;;;50.65;30.77;;;77.60;2227.20;;;;;;5053043;28;20025;-59
2023/01/26 03:27:48;;;;;;;42.55;23.88;;;77.50;2227.20;;;;;;5052960;28;20040;-58
2023/01/26 03:30:16;;;;;;;41.33;25.20;;;77.50;2227.20;;;;;;5053001;28;20028;-58
2023/01/26 03:32:42;;;;;;;28.70;19.50;;;77.40;2227.20;;;;;;5052786;28;20037;-58
2023/01/26 03:35:14;;;;;;;29.83;19.40;;;77.40;2227.20;;;;;;5052664;28;20033;-58
2023/01/26 03:37:42;;;;;;;45.85;25.33;;;77.30;2227.20;;;;;;5052590;28;20466;-59
2023/01/26 03:56:35;;;;;;;33.67;18.67;;;77.50;2227.20;;;;;;5032399;28;20155;-59
2023/01/26 03:59:11;;;;;;;28.77;18.98;;;77.40;2227.20;;;;;;5032520;28;20068;-59
2023/01/26 04:01:40;;;;;;;36.83;22.83;;;77.40;2227.20;;;;;;5032484;28;20390;-59
2023/01/26 04:09:38;;;;;;;33.60;19.15;;;77.20;2227.20;;;;;;5032093;28;20079;-59
2023/01/26 04:12:04;;;;;;;46.53;27.15;;;77.00;2227.20;;;;;;5032364;28;20053;-59
2023/01/26 04:22:44;;;;;;;65.65;37.97;;;77.40;2227.20;;;;;;5032173;28;20028;-59
2023/01/26 04:25:18;;;;;;;45.78;29.23;;;77.30;2227.20;;;;;;5031557;28;20088;-58
2023/01/26 04:27:44;;;;;;;54.92;31.95;;;77.30;2227.20;;;;;;5031893;28;20025;-59
2023/01/26 04:30:13;;;;;;;55.55;32.65;;;77.30;2227.20;;;;;;5031984;28;20030;-58
2023/01/26 04:32:39;;;;;;;68.10;44.47;;;77.30;2227.20;;;;;;5031401;28;20029;-62
2023/01/26 04:35:06;;;;;;;62.90;35.90;;;77.30;2227.20;;;;;;5031976;28;20032;-59
2023/01/26 04:37:32;;;;;;;54.40;32.60;;;77.30;2227.20;;;;;;5031641;28;20378;-59
2023/01/26 04:39:57;;;;;;;44.90;30.23;;;77.30;2227.20;;;;;;5031480;28;20101;-59
2023/01/26 04:42:23;;;;;;;46.45;28.60;;;77.30;2227.20;;;;;;5031610;28;20029;-59
2023/01/26 04:44:50;;;;;;;43.95;27.52;;;77.30;2227.20;;;;;;5034509;28;20049;-61
2023/01/26 04:47:16;;;;;;;54.47;33.30;;;77.30;2227.20;;;;;;5051189;28;20029;-59
2023/01/26 04:49:42;;;;;;;58.05;32.42;;;77.50;2227.20;;;;;;5051482;28;20471;-58
2023/01/26 04:52:07;;;;;;;57.88;35.35;;;77.40;2227.20;;;;;;5051228;28;20108;-59
2023/01/26 04:54:33;;;;;;;58.97;35.10;;;77.20;2227.20;;;;;;5051464;28;20045;-59
2023/01/26 04:56:59;;;;;;;61.33;32.72;;;77.30;2227.20;;;;;;5051143;28;20137;-63
2023/01/26 04:59:24;;;;;;;60.70;36.25;;;77.30;2227.20;;;;;;5051387;28;20355;-59
2023/01/26 05:01:50;;;;;;;68.43;40.80;;;77.40;2227.20;;;;;;5051221;28;20055;-59
2023/01/26 05:04:16;;;;;;;71.97;42.03;;;77.20;2227.20;;;;;;5050810;28;20131;-59
2023/01/26 05:06:41;;;;;;;64.47;42.30;;;77.30;2227.20;;;;;;5050299;28;20112;-58
2023/01/26 05:09:08;;;;;;;45.10;28.52;;;77.40;2227.20;;;;;;5051074;28;20029;-59
2023/01/26 05:11:33;;;;;;;66.18;39.42;;;77.50;2227.20;;;;;;5051258;28;20025;-60
2023/01/26 05:13:59;;;;;;;58.97;37.17;;;77.60;2227.20;;;;;;5050906;28;20040;-64
2023/01/26 05:16:25;;;;;;;60.97;35.17;;;77.50;2227.20;;;;;;5050961;28;20466;-58
2023/01/26 05:18:50;;;;;;;52.55;30.48;;;77.40;2227.20;;;;;;5050827;28;20055;-59
2023/01/26 05:21:16;;;;;;;41.03;27.38;;;77.50;2227.20;;;;;;5050708;28;20612;-59
2023/01/26 05:23:42;;;;;;;49.22;31.25;;;77.30;2227.20;;;;;;5050855;28;20033;-59
2023/01/26 05:26:08;;;;;;;45.95;28.88;;;77.30;2227.20;;;;;;5050631;28;20033;-59
2023/01/26 05:28:34;;;;;;;51.33;30.02;;;77.30;2227.20;;;;;;5050819;28;20075;-59
2023/01/26 05:31:00;;;;;;;60.92;35.67;;;77.30;2227.20;;;;;;5050641;28;20127;-63
2023/01/26 05:33:25;;;;;;;44.83;26.95;;;77.40;2227.20;;;;;;5050354;28;20526;-59
2023/01/26 05:35:52;;;;;;;46.05;27.75;;;77.40;2227.20;;;;;;5050571;28;20025;-59
2023/01/26 05:38:17;;;;;;;43.50;27.13;;;77.40;2227.20;;;;;;5050553;28;20033;-59
2023/01/26 05:40:43;;;;;;;42.10;26.05;;;77.40;2227.20;;;;;;5050752;28;20021;-63
2023/01/26 05:43:10;;;;;;;53.00;32.45;;;77.30;2227.20;;;;;;5050413;28;20538;-59
2023/01/26 05:45:36;;;;;;;55.55;33.75;;;77.30;2227.20;;;;;;5050143;28;20143;-59
2023/01/26 05:48:01;;;;;;;46.90;28.08;;;77.40;2227.20;;;;;;5050409;28;20159;-59
2023/01/26 05:50:27;;;;;;;43.03;25.15;;;77.40;2227.20;;;;;;5050303;28;20090;-59
2023/01/26 05:52:53;;;;;;;39.63;24.27;;;77.40;2227.20;;;;;;5050420;28;20040;-58
2023/01/26 05:55:19;;;;;;;59.53;36.30;;;77.30;2227.20;;;;;;5050395;28;20036;-60
2023/01/26 05:57:45;;;;;;;49.80;31.63;;;77.30;2227.20;;;;;;5050598;28;20943;-59
2023/01/26 06:00:11;;;;;;;45.67;27.20;;;77.20;2227.20;;;;;;5050520;28;20086;-59
2023/01/26 06:02:39;;;;;;;43.25;26.65;;;77.20;2227.20;;;;;;5051357;28;20036;-58
2023/01/26 06:05:05;;;;;;;42.70;25.23;;;77.30;2227.20;;;;;;5069970;28;20036;-63
2023/01/26 06:07:31;;;;;;;39.95;25.45;;;77.30;2227.20;;;;;;5070371;28;20029;-59
2023/01/26 06:09:57;;;;;;;39.58;26.92;;;77.20;2227.20;;;;;;5070343;28;20035;-58
2023/01/26 06:12:23;;;;;;;45.33;28.38;;;77.30;2227.20;;;;;;5070428;28;20520;-59
2023/01/26 06:14:48;;;;;;;36.25;24.58;;;77.30;2227.20;;;;;;5070128;28;20033;-59
2023/01/26 06:17:16;;;;;;;46.10;29.17;;;77.30;2227.20;;;;;;5069177;28;20032;-59
2023/01/26 06:19:42;;;;;;;35.83;23.45;;;77.20;2227.20;;;;;;5074327;28;20051;-59
2023/01/26 06:22:10;;;;;;;38.75;24.17;;;77.30;2227.20;;;;;;5074057;28;20141;-60
2023/01/26 06:24:36;;;;;;;36.95;22.45;;;77.20;2227.20;;;;;;5074078;28;20028;-59
2023/01/26 06:27:02;;;;;;;50.33;29.55;;;77.30;2227.20;;;;;;5073869;28;20429;-63
2023/01/26 06:29:28;;;;;;;55.72;31.05;;;77.30;2227.20;;;;;;5054035;28;20032;-58
2023/01/26 06:31:54;;;;;;;73.10;40.42;;;77.30;2227.20;;;;;;5054217;28;20397;-59
2023/01/26 06:34:20;;;;;;;97.80;56.40;;;77.30;2227.20;;;;;;5053661;28;20166;-61
2023/01/26 06:36:46;;;;;;;110.25;68.63;;;77.40;2227.20;;;;;;5053831;28;20024;-60
2023/01/26 06:39:12;;;;;;;54.50;35.22;;;77.40;2227.20;;;;;;5053957;28;20029;-58
2023/01/26 06:41:38;;;;;;;57.53;39.08;;;77.40;2227.20;;;;;;5053644;28;20024;-59
2023/01/26 06:44:04;;;;;;;61.55;36.15;;;77.20;2227.20;;;;;;5054186;28;20075;-59
2023/01/26 06:46:30;;;;;;;49.10;30.15;;;77.20;2227.20;;;;;;5036374;28;20053;-59
2023/01/26 06:48:56;;;;;;;55.70;30.15;;;77.20;2227.20;;;;;;5033571;28;20021;-59
2023/01/26 06:51:43;;;;;;;58.70;37.03;;;77.40;2227.20;;;;;;5033635;28;20076;-59
2023/01/26 06:54:10;;;;;;;80.88;45.70;;;77.30;2227.20;;;;;;5033280;28;20069;-58
2023/01/26 06:56:36;;;;;;;75.90;45.80;;;77.20;2227.20;;;;;;5033186;28;20029;-60
2023/01/26 06:59:01;;;;;;;88.63;50.30;;;77.40;2227.20;;;;;;5033424;28;20028;-60
2023/01/26 07:01:30;;;;;;;90.57;52.70;;;77.30;2227.20;;;;;;5033273;28;20030;-59
2023/01/26 07:03:56;;;;;;;76.50;48.13;;;77.30;2227.20;;;;;;5033268;28;20018;-59
2023/01/26 07:06:22;;;;;;;80.70;42.35;;;77.40;2227.20;;;;;;5033740;28;20024;-59
2023/01/26 07:08:47;;;;;;;57.47;33.05;;;77.00;2227.20;;;;;;5033504;28;20029;-60
2023/01/26 07:11:15;;;;;;;93.10;49.33;;;77.20;2227.20;;;;;;5033373;28;20475;-59
2023/01/26 07:13:41;;;;;;;52.15;30.08;;;77.30;2227.20;;;;;;5033375;28;20482;-59
2023/01/26 07:16:12;;;;;;;46.05;27.77;;;77.00;2227.20;;;;;;5033296;28;20104;-59
2023/01/26 07:18:38;;;;;;;44.25;26.83;;;77.00;2227.20;;;;;;5033047;28;20036;-59
2023/01/26 07:21:06;;;;;;;47.13;30.40;;;77.00;2227.20;;;;;;5033306;28;20025;-59
2023/01/26 07:23:32;;;;;;;44.85;25.63;;;77.10;2227.20;;;;;;5033129;28;20034;-58
2023/01/26 07:25:58;;;;;;;51.58;30.33;;;77.10;2227.20;;;;;;5033022;28;20033;-59
2023/01/26 07:28:25;;;;;;;51.83;30.85;;;76.90;2227.20;;;;;;5033053;28;20034;-58
2023/01/26 07:30:56;;;;;;;44.92;27.98;;;77.00;2227.20;;;;;;5031926;28;20063;-59
2023/01/26 07:33:22;;;;;;;42.08;27.42;;;77.00;2227.20;;;;;;5032847;28;20373;-63
2023/01/26 07:35:47;;;;;;;41.85;25.40;;;76.90;2227.20;;;;;;5032808;28;20034;-60
2023/01/26 07:38:13;;;;;;;36.20;21.83;;;76.90;2227.20;;;;;;5032943;28;20040;-59
2023/01/26 07:40:39;;;;;;;26.45;17.85;;;76.90;2227.20;;;;;;5032470;28;20025;-59
2023/01/26 07:43:05;;;;;;;28.42;17.85;;;77.10;2227.20;;;;;;5032813;28;20030;-59
2023/01/26 07:45:31;;;;;;;35.40;19.10;;;77.00;2227.20;;;;;;5032550;28;20049;-60
2023/01/26 07:47:56;;;;;;;31.80;20.67;;;77.00;2227.20;;;;;;5032352;28;20498;-60
2023/01/26 07:50:24;;;;;;;59.13;34.60;;;77.10;2227.20;;;;;;5032661;28;20033;-59
2023/01/26 07:52:51;;;;;;;60.28;34.58;;;77.10;2227.20;;;;;;5032315;28;20068;-59
2023/01/26 07:55:19;;;;;;;54.58;33.20;;;77.10;2227.20;;;;;;5032475;28;20390;-58
2023/01/26 07:57:47;;;;;;;50.90;29.25;;;77.30;2227.20;;;;;;5032385;28;20105;-59
2023/01/26 08:00:14;;;;;;;36.45;23.60;;;77.30;2227.20;;;;;;5032206;28;20037;-58
2023/01/26 08:02:40;;;;;;;41.08;24.50;;;77.10;2227.20;;;;;;5037238;28;20028;-58
2023/01/26 08:05:06;;;;;;;46.28;28.80;;;77.10;2227.20;;;;;;5041405;28;20013;-59
2023/01/26 08:07:32;;;;;;;45.50;28.73;;;77.00;2227.20;;;;;;5037376;28;20091;-58
2023/01/26 08:09:58;;;;;;;37.17;24.48;;;77.20;2227.20;;;;;;5040438;28;20299;-57
2023/01/26 08:12:24;;;;;;;36.70;22.33;;;76.90;2227.20;;;;;;5042050;28;20380;-58
2023/01/26 08:14:50;;;;;;;36.72;22.40;;;76.90;2227.20;;;;;;5032518;28;20426;-60
2023/01/26 08:17:16;;;;;;;55.30;30.90;;;76.90;2227.20;;;;;;5031980;28;20109;-60
2023/01/26 08:19:43;;;;;;;39.80;24.23;;;77.10;2227.20;;;;;;5032233;28;20026;-58
2023/01/26 08:22:09;;;;;;;31.83;19.92;;;76.90;2227.20;;;;;;5032000;28;20079;-59
2023/01/26 08:24:34;;;;;;;50.65;31.00;;;77.00;2227.20;;;;;;5032124;28;20597;-59
2023/01/26 08:27:00;;;;;;;37.65;22.95;;;76.80;2227.20;;;;;;5031984;28;20075;-59
2023/01/26 08:29:26;;;;;;;40.50;26.20;;;52.10;2227.20;;;;;;5031748;28;20120;-59
2023/01/26 08:31:52;;;;;;;41.58;23.10;;;76.80;2227.20;;;;;;5031931;28;20026;-59
2023/01/26 08:34:20;;;;;;;41.95;24.33;;;76.80;2227.20;;;;;;5031361;28;20041;-60
2023/01/26 08:36:46;;;;;;;59.60;35.13;;;76.90;2227.20;;;;;;5029059;28;20037;-59
2023/01/26 08:39:12;;;;;;;70.70;43.33;;;77.20;2227.20;;;;;;5028232;28;20025;-59
2023/01/26 08:41:38;;;;;;;66.25;38.47;;;77.30;2227.20;;;;;;5029209;28;20025;-60
2023/01/26 08:44:05;;;;;;;63.67;40.85;;;77.40;2227.20;;;;;;5029594;28;20104;-59
2023/01/26 08:46:31;;;;;;;58.55;35.58;;;77.50;2227.20;;;;;;5046674;28;20151;-59
2023/01/26 08:48:56;;;;;;;66.30;39.22;;;77.20;2227.20;;;;;;5049063;28;20021;-59
2023/01/26 08:51:22;;;;;;;67.75;41.65;;;77.20;2227.20;;;;;;5049293;28;20033;-59
2023/01/26 08:53:48;;;;;;;51.90;32.83;;;76.90;2227.20;;;;;;5048805;28;20076;-60
2023/01/26 08:56:14;;;;;;;40.55;25.10;;;77.10;2227.20;;;;;;5049200;28;20063;-59
2023/01/26 08:58:40;;;;;;;41.08;25.10;;;77.00;2227.20;;;;;;5049171;28;20037;-59
2023/01/26 09:01:07;;;;;;;41.30;25.42;;;77.10;2227.20;;;;;;5048995;28;20029;-60
2023/01/26 09:03:33;;;;;;;44.15;29.25;;;77.00;2227.20;;;;;;5048971;28;20475;-60
2023/01/26 09:06:00;;;;;;;45.25;27.48;;;77.00;2227.20;;;;;;5048231;28;20081;-59
2023/01/26 09:08:26;;;;;;;57.00;34.97;;;77.10;2227.20;;;;;;5048904;28;20023;-60
2023/01/26 09:10:52;;;;;;;47.83;28.30;;;77.10;2227.20;;;;;;5049052;28;20024;-59
2023/01/26 09:13:18;;;;;;;61.95;36.65;;;77.00;2227.20;;;;;;5048674;28;20043;-60
2023/01/26 09:15:43;;;;;;;62.40;36.15;;;77.10;2227.20;;;;;;5049011;28;20097;-60
2023/01/26 09:18:10;;;;;;;49.90;30.27;;;77.20;2227.20;;;;;;5048116;28;20106;-59
2023/01/26 09:20:39;;;;;;;34.88;24.05;;;77.20;2227.20;;;;;;5048556;28;20028;-60
2023/01/26 09:23:05;;;;;;;39.40;24.00;;;77.10;2227.20;;;;;;5048350;28;20052;-60
2023/01/26 09:25:31;;;;;;;47.42;30.65;;;77.10;2227.20;;;;;;5047332;28;20696;-59
2023/01/26 09:27:56;;;;;;;46.28;27.80;;;77.40;2227.20;;;;;;5048479;28;20061;-60
2023/01/26 09:30:25;;;;;;;42.25;23.88;;;77.20;2227.20;;;;;;5050311;28;20047;-58
2023/01/26 09:32:51;;;;;;;41.92;25.55;;;77.10;2227.20;;;;;;5063435;28;20535;-59
2023/01/26 09:35:17;;;;;;;42.85;26.92;;;77.30;2227.20;;;;;;5066196;28;20122;-59
2023/01/26 09:37:43;;;;;;;40.65;25.00;;;77.60;2227.20;;;;;;5064898;28;20110;-59
2023/01/26 09:40:36;;;;;;;34.45;22.60;;;77.70;2227.20;;;;;;5066399;28;20070;-59
2023/01/26 09:43:13;;;;;;;52.05;32.13;;;77.50;2227.20;;;;;;5047836;28;20163;-57
2023/01/26 09:46:17;;;;;;;45.72;28.48;;;77.50;2227.20;;;;;;5053940;28;20742;-59
2023/01/26 09:48:55;;;;;;;54.05;34.53;;;77.70;2227.20;;;;;;4984734;28;20054;-59
2023/01/26 09:51:33;;;;;;;87.57;50.65;;;77.70;2227.20;;;;;;4986195;28;20030;-58
2023/01/26 09:54:04;;;;;;;105.40;62.45;;;102.70;2227.20;;;;;;4985534;28;20046;-58
2023/01/26 09:56:33;;;;;;;66.78;37.97;;;102.70;2227.20;;;;;;4986250;28;20093;-59
2023/01/26 09:59:48;;;;;;;48.58;27.40;;;102.60;2227.20;;;;;;4985825;28;20066;-59
2023/01/26 10:02:16;;;;;;;40.25;26.90;;;102.40;2227.20;;;;;;4984252;28;20101;-59
2023/01/26 10:04:45;;;;;;;39.97;23.83;;;102.70;2227.20;;;;;;4986071;28;20484;-58
2023/01/26 10:07:12;;;;;;;47.30;28.42;;;102.60;2227.20;;;;;;4983859;28;20022;-59
2023/01/26 10:09:41;;;;;;;65.70;39.17;;;102.50;2227.20;;;;;;4985956;28;20099;-59
2023/01/26 10:12:15;;;;;;;47.75;27.67;;;102.60;2227.20;;;;;;4985481;28;20094;-59
2023/01/26 10:14:51;;;;;;;48.13;30.98;;;102.50;2227.20;;;;;;4985951;28;20105;-59
2023/01/26 10:17:20;;;;;;;43.60;29.10;;;102.40;2227.20;;;;;;4985780;28;20031;-59
2023/01/26 10:19:55;;;;;;;41.58;28.17;;;77.70;2227.20;;;;;;4985713;28;20113;-60
2023/01/26 10:22:44;;;;;;;36.05;19.67;;;102.40;2227.20;;;;;;4985813;28;20034;-58
2023/01/26 10:25:29;;;;;;;37.88;24.90;;;102.50;2227.20;;;;;;5038544;28;20037;-59
2023/01/26 10:27:55;;;;;;;54.38;33.55;;;102.40;2227.20;;;;;;5045547;28;20376;-59
2023/01/26 10:30:21;;;;;;;125.50;68.15;;;102.40;2227.20;;;;;;5045473;28;20021;-59
2023/01/26 10:32:51;;;;;;;70.10;40.72;;;102.50;2227.20;;;;;;5044597;28;20475;-59
2023/01/26 10:35:24;;;;;;;60.22;36.05;;;102.60;2227.20;;;;;;5045215;28;20024;-59
2023/01/26 10:37:51;;;;;;;32.78;19.73;;;102.50;2227.20;;;;;;5047038;28;20017;-59
2023/01/26 10:40:18;;;;;;;50.10;30.23;;;77.70;2227.20;;;;;;5047151;28;20029;-59
2023/01/26 10:42:57;;;;;;;43.50;28.42;;;102.60;2227.20;;;;;;5047255;28;20052;-59
2023/01/26 10:45:28;;;;;;;28.90;20.35;;;102.50;2227.20;;;;;;5047344;28;20048;-60
2023/01/26 10:48:03;;;;;;;41.63;25.77;;;102.50;2227.20;;;;;;5047368;28;20032;-59
2023/01/26 10:50:30;;;;;;;32.92;20.63;;;102.80;2227.20;;;;;;5046312;28;20024;-58
2023/01/26 10:53:03;;;;;;;43.28;26.60;;;102.80;2227.20;;;;;;5045139;28;20046;-59
2023/01/26 10:55:31;;;;;;;35.00;24.20;;;102.90;2227.20;;;;;;5047287;28;20051;-59
2023/01/26 10:57:58;;;;;;;50.72;27.45;;;102.70;2227.20;;;;;;5045658;28;20090;-59
2023/01/26 11:00:27;;;;;;;42.28;28.20;;;102.80;2227.20;;;;;;5047241;28;20421;-58
2023/01/26 11:03:02;;;;;;;32.05;21.75;;;102.90;2227.20;;;;;;5046939;28;20028;-58
2023/01/26 11:05:28;;;;;;;34.20;21.10;;;102.40;2227.20;;;;;;5048959;28;20025;-58
2023/01/26 11:07:59;;;;;;;25.75;17.33;;;102.50;2227.20;;;;;;5050806;28;20100;-57
2023/01/26 11:10:31;;;;;;;39.05;22.77;;;77.70;2227.20;;;;;;5050988;28;20017;-60
2023/01/26 11:13:18;;;;;;;31.17;18.70;;;77.70;2227.20;;;;;;5048737;28;20068;-59
2023/01/26 11:15:47;;;;;;;29.33;18.02;;;102.60;2227.20;;;;;;5037081;28;20122;-58
2023/01/26 11:18:38;;;;;;;36.17;23.70;;;102.50;2227.20;;;;;;5049934;28;20086;-58
2023/01/26 11:21:10;;;;;;;37.15;23.65;;;102.50;2227.20;;;;;;5050590;28;20036;-58
2023/01/26 11:23:50;;;;;;;33.80;21.38;;;102.90;2227.20;;;;;;5048365;28;20483;-58
2023/01/26 11:26:40;;;;;;;27.52;17.40;;;102.60;2227.20;;;;;;5048404;28;20029;-59
2023/01/26 11:29:32;;;;;;;34.15;19.23;;;102.70;2227.20;;;;;;5036703;28;20021;-59
2023/01/26 11:32:33;;;;;;;31.58;19.65;;;102.50;2227.20;;;;;;5048677;28;20698;-58
2023/01/26 11:35:15;;;;;;;31.77;19.45;;;102.80;2227.20;;;;;;5048983;28;20033;-60
2023/01/26 11:37:48;;;;;;;52.28;29.67;;;102.90;2227.20;;;;;;5050214;28;20383;-59
2023/01/26 11:40:36;;;;;;;31.05;20.45;;;102.90;2227.20;;;;;;5052828;28;20462;-59
2023/01/26 11:43:40;;;;;;;32.83;21.58;;;102.80;2227.20;;;;;;5052782;28;20025;-59
2023/01/26 11:46:22;;;;;;;38.70;24.23;;;102.80;2227.20;;;;;;5041472;28;20068;-59
2023/01/26 11:49:10;;;;;;;34.83;22.15;;;102.80;2227.20;;;;;;5052303;28;20497;-59
2023/01/26 11:51:56;;;;;;;41.10;24.05;;;102.80;2227.20;;;;;;5052139;28;20035;-60
2023/01/26 11:54:53;;;;;;;45.97;26.55;;;102.80;2227.20;;;;;;5052517;28;20069;-59
2023/01/26 11:57:42;;;;;;;41.47;24.52;;;102.40;2227.20;;;;;;5052352;28;20028;-60
2023/01/26 12:00:11;;;;;;;46.17;25.40;;;102.50;2227.20;;;;;;5052112;28;20485;-59
2023/01/26 12:02:37;;;;;;;65.50;31.73;;;77.70;2227.20;;;;;;5052160;28;20036;-60
2023/01/26 12:05:40;;;;;;;89.22;46.83;;;77.50;2227.20;;;;;;5052230;28;20021;-58
2023/01/26 12:08:37;;;;;;;66.78;36.67;;;77.60;2227.20;;;;;;5042040;28;20040;-60
2023/01/26 12:11:21;;;;;;;76.25;41.33;;;102.50;2227.20;;;;;;5052208;28;20049;-60
2023/01/26 12:14:02;;;;;;;62.42;34.72;;;77.60;2227.20;;;;;;5051760;28;20037;-59
2023/01/26 12:16:47;;;;;;;69.97;37.97;;;;;;;;;;5051543;28;20025;-59
2023/01/26 12:19:22;;;;;;;77.88;44.92;;;;;;;;;;5052101;28;20086;-59
2023/01/26 12:21:50;;;;;;;64.90;38.38;;;;;;;;;;5051687;28;20025;-60
2023/01/26 12:24:19;;;;;;;52.75;33.42;;;;;;;;;;5051837;28;20033;-59
2023/01/26 12:26:47;;;;;;;49.35;30.10;;;;;;;;;;5051714;28;20020;-61
2023/01/26 12:29:28;;;;;;;48.75;26.60;;;;;;;;;;5051868;28;20032;-59
2023/01/26 12:31:57;;;;;;;55.35;33.30;;;;;;;;;;5052102;28;20024;-59
2023/01/26 12:34:27;;;;;;;64.55;40.58;;;;;;;;;;5051858;28;20497;-59
2023/01/26 12:36:56;;;;;;;66.32;38.17;;;;;;;;;;5052039;28;20080;-59
2023/01/26 12:39:35;;;;;;;84.75;50.92;;;;;;;;;;5051263;28;20029;-59
2023/01/26 12:42:13;;;;;;;67.57;42.63;;;;;;;;;;5051590;28;20055;-59
2023/01/26 12:44:39;;;;;;;83.50;50.20;;;;;;;;;;5033419;28;20423;-59
2023/01/26 12:47:08;;;;;;;61.22;37.67;;;;;;;;;;5048583;28;20080;-59
2023/01/26 12:49:37;;;;;;;38.38;23.23;;;;;;;;;;5049436;28;20337;-59
2023/01/26 12:52:07;;;;;;;45.80;28.88;;;;;;;;;;5049217;28;20052;-59
2023/01/26 12:54:46;;;;;;;37.70;22.70;;;;;;;;;;5049028;28;20076;-59
2023/01/26 12:57:15;;;;;;;40.33;23.58;;;;;;;;;;5049144;28;20120;-60
2023/01/26 12:59:41;;;;;;;37.30;25.08;;;;;;;;;;5048672;28;20028;-59
2023/01/26 13:02:28;;;;;;;36.20;23.33;;;;;;;;;;5048874;28;20387;-60
2023/01/26 13:04:55;;;;;;;31.20;20.58;;;;;;;;;;5048983;28;20455;-60
2023/01/26 13:07:37;;;;;;;36.33;22.25;;;;;;;;;;5048926;28;20029;-59
2023/01/26 13:10:16;;;;;;;45.20;28.65;;;;;;;;;;5048890;28;20029;-59